sensor_id;sensor_type;location;lat;lon;timestamp;temperature;humidity
16040;DHT22;8124;48.634;8.120;2023-12-14T00:01:22;10.80;99.90
16040;DHT22;8124;48.634;8.120;2023-12-14T00:06:25;10.80;99.90
16040;DHT22;8124;48.634;8.120;2023-12-14T00:11:30;10.80;99.90
16040;DHT22;8124;48.634;8.120;2023-12-14T00:16:33;10.70;99.90
16040;DHT22;8124;48.634;8.120;2023-12-14T00:21:36;10.60;99.90
16040;DHT22;8124;48.634;8.120;2023-12-14T00:26:40;10.70;99.90
16040;DHT22;8124;48.634;8.120;2023-12-14T00:31:43;10.80;99.90
16040;DHT22;8124;48.634;8.120;2023-12-14T00:36:46;10.80;99.90
16040;DHT22;8124;48.634;8.120;2023-12-14T00:41:51;10.80;99.90
16040;DHT22;8124;48.634;8.120;2023-12-14T00:46:54;10.80;99.90
16040;DHT22;8124;48.634;8.120;2023-12-14T00:51:57;10.80;99.90
16040;DHT22;8124;48.634;8.120;2023-12-14T00:57:01;10.70;99.90
16040;DHT22;8124;48.634;8.120;2023-12-14T01:02:04;10.70;99.90
16040;DHT22;8124;48.634;8.120;2023-12-14T01:07:08;10.60;99.90
16040;DHT22;8124;48.634;8.120;2023-12-14T01:12:12;10.60;99.90
16040;DHT22;8124;48.634;8.120;2023-12-14T01:17:16;10.50;99.90
16040;DHT22;8124;48.634;8.120;2023-12-14T01:22:19;10.50;99.90
16040;DHT22;8124;48.634;8.120;2023-12-14T01:27:23;10.50;99.90
16040;DHT22;8124;48.634;8.120;2023-12-14T01:32:26;10.40;99.90
16040;DHT22;8124;48.634;8.120;2023-12-14T01:37:29;10.50;99.90
16040;DHT22;8124;48.634;8.120;2023-12-14T01:42:33;10.60;99.90
16040;DHT22;8124;48.634;8.120;2023-12-14T01:47:37;10.60;99.90
16040;DHT22;8124;48.634;8.120;2023-12-14T01:52:40;10.60;99.90
16040;DHT22;8124;48.634;8.120;2023-12-14T01:57:44;10.50;99.90
16040;DHT22;8124;48.634;8.120;2023-12-14T02:02:48;10.60;99.90
16040;DHT22;8124;48.634;8.120;2023-12-14T02:07:50;10.60;99.90
16040;DHT22;8124;48.634;8.120;2023-12-14T02:12:55;10.70;99.90
16040;DHT22;8124;48.634;8.120;2023-12-14T02:17:58;10.80;99.90
16040;DHT22;8124;48.634;8.120;2023-12-14T02:23:02;10.60;99.90
16040;DHT22;8124;48.634;8.120;2023-12-14T02:28:05;10.70;99.90
16040;DHT22;8124;48.634;8.120;2023-12-14T02:33:08;10.70;99.90
16040;DHT22;8124;48.634;8.120;2023-12-14T02:38:13;10.70;99.90
16040;DHT22;8124;48.634;8.120;2023-12-14T02:43:16;10.70;99.90
16040;DHT22;8124;48.634;8.120;2023-12-14T02:48:19;10.70;99.90
16040;DHT22;8124;48.634;8.120;2023-12-14T02:53:23;10.70;99.90
16040;DHT22;8124;48.634;8.120;2023-12-14T02:58:26;10.60;99.90
16040;DHT22;8124;48.634;8.120;2023-12-14T03:03:29;10.50;99.90
16040;DHT22;8124;48.634;8.120;2023-12-14T03:08:34;10.50;99.90
16040;DHT22;8124;48.634;8.120;2023-12-14T03:13:37;10.50;99.90
16040;DHT22;8124;48.634;8.120;2023-12-14T03:18:40;10.40;99.90
16040;DHT22;8124;48.634;8.120;2023-12-14T03:23:44;10.30;99.90
16040;DHT22;8124;48.634;8.120;2023-12-14T03:28:47;10.30;99.90
16040;DHT22;8124;48.634;8.120;2023-12-14T03:33:50;10.30;99.90
16040;DHT22;8124;48.634;8.120;2023-12-14T03:38:55;10.40;99.90
16040;DHT22;8124;48.634;8.120;2023-12-14T03:43:58;10.40;99.90
16040;DHT22;8124;48.634;8.120;2023-12-14T03:49:01;10.40;99.90
16040;DHT22;8124;48.634;8.120;2023-12-14T03:54:06;10.50;99.90
16040;DHT22;8124;48.634;8.120;2023-12-14T03:59:09;10.50;99.90
16040;DHT22;8124;48.634;8.120;2023-12-14T04:04:13;10.40;99.90
16040;DHT22;8124;48.634;8.120;2023-12-14T04:09:17;10.40;99.90
16040;DHT22;8124;48.634;8.120;2023-12-14T04:14:20;10.30;99.90
16040;DHT22;8124;48.634;8.120;2023-12-14T04:19:23;10.40;99.90
16040;DHT22;8124;48.634;8.120;2023-12-14T04:24:28;10.50;99.90
16040;DHT22;8124;48.634;8.120;2023-12-14T04:29:32;10.60;99.90
16040;DHT22;8124;48.634;8.120;2023-12-14T04:34:35;10.60;99.90
16040;DHT22;8124;48.634;8.120;2023-12-14T04:39:39;10.60;99.90
16040;DHT22;8124;48.634;8.120;2023-12-14T04:44:42;10.50;99.90
16040;DHT22;8124;48.634;8.120;2023-12-14T04:49:45;10.70;99.90
16040;DHT22;8124;48.634;8.120;2023-12-14T04:54:50;10.70;99.90
16040;DHT22;8124;48.634;8.120;2023-12-14T04:59:53;10.80;99.90
16040;DHT22;8124;48.634;8.120;2023-12-14T05:04:56;10.80;99.90
16040;DHT22;8124;48.634;8.120;2023-12-14T05:10:00;10.80;99.90
16040;DHT22;8124;48.634;8.120;2023-12-14T05:15:04;10.80;99.90
16040;DHT22;8124;48.634;8.120;2023-12-14T05:20:08;10.70;99.90
16040;DHT22;8124;48.634;8.120;2023-12-14T05:25:13;11.10;99.90
16040;DHT22;8124;48.634;8.120;2023-12-14T05:30:16;11.00;99.90
16040;DHT22;8124;48.634;8.120;2023-12-14T05:35:20;10.90;99.90
16040;DHT22;8124;48.634;8.120;2023-12-14T05:40:24;10.80;99.90
16040;DHT22;8124;48.634;8.120;2023-12-14T05:45:27;10.80;99.90
16040;DHT22;8124;48.634;8.120;2023-12-14T05:50:32;10.80;99.90
16040;DHT22;8124;48.634;8.120;2023-12-14T05:55:36;10.70;99.90
16040;DHT22;8124;48.634;8.120;2023-12-14T06:00:41;10.70;99.90
16040;DHT22;8124;48.634;8.120;2023-12-14T06:05:44;10.70;99.90
16040;DHT22;8124;48.634;8.120;2023-12-14T06:10:49;10.80;99.90
16040;DHT22;8124;48.634;8.120;2023-12-14T06:15:52;10.70;99.90
16040;DHT22;8124;48.634;8.120;2023-12-14T06:20:55;10.70;99.90
16040;DHT22;8124;48.634;8.120;2023-12-14T06:25:59;10.70;99.90
16040;DHT22;8124;48.634;8.120;2023-12-14T06:31:05;10.60;99.90
16040;DHT22;8124;48.634;8.120;2023-12-14T06:36:10;10.50;99.90
16040;DHT22;8124;48.634;8.120;2023-12-14T06:41:21;10.40;99.90
16040;DHT22;8124;48.634;8.120;2023-12-14T06:46:24;10.40;99.90
16040;DHT22;8124;48.634;8.120;2023-12-14T06:51:27;10.40;99.90
16040;DHT22;8124;48.634;8.120;2023-12-14T06:56:32;10.40;99.90
16040;DHT22;8124;48.634;8.120;2023-12-14T07:01:35;10.50;99.90
16040;DHT22;8124;48.634;8.120;2023-12-14T07:06:38;10.40;99.90
16040;DHT22;8124;48.634;8.120;2023-12-14T07:11:43;10.40;99.90
16040;DHT22;8124;48.634;8.120;2023-12-14T07:16:46;10.30;99.90
16040;DHT22;8124;48.634;8.120;2023-12-14T07:21:49;10.40;99.90
16040;DHT22;8124;48.634;8.120;2023-12-14T07:26:53;10.40;99.90
16040;DHT22;8124;48.634;8.120;2023-12-14T07:31:56;10.30;99.90
16040;DHT22;8124;48.634;8.120;2023-12-14T07:36:59;10.40;99.90
16040;DHT22;8124;48.634;8.120;2023-12-14T07:42:04;10.50;99.90
16040;DHT22;8124;48.634;8.120;2023-12-14T07:47:08;10.50;99.90
16040;DHT22;8124;48.634;8.120;2023-12-14T07:52:11;10.50;99.90
16040;DHT22;8124;48.634;8.120;2023-12-14T07:57:17;10.50;99.90
16040;DHT22;8124;48.634;8.120;2023-12-14T08:02:20;10.60;99.90
16040;DHT22;8124;48.634;8.120;2023-12-14T08:07:23;10.50;99.90
16040;DHT22;8124;48.634;8.120;2023-12-14T08:12:32;10.50;99.90
16040;DHT22;8124;48.634;8.120;2023-12-14T08:17:35;10.60;99.90
16040;DHT22;8124;48.634;8.120;2023-12-14T08:22:39;10.70;99.90
16040;DHT22;8124;48.634;8.120;2023-12-14T08:27:47;10.60;99.90
16040;DHT22;8124;48.634;8.120;2023-12-14T08:32:50;10.70;99.90
16040;DHT22;8124;48.634;8.120;2023-12-14T08:37:53;10.60;99.90
16040;DHT22;8124;48.634;8.120;2023-12-14T08:42:58;10.70;99.90
16040;DHT22;8124;48.634;8.120;2023-12-14T08:48:01;10.60;99.90
16040;DHT22;8124;48.634;8.120;2023-12-14T08:53:04;10.50;99.90
16040;DHT22;8124;48.634;8.120;2023-12-14T08:58:09;10.60;99.90
16040;DHT22;8124;48.634;8.120;2023-12-14T09:03:11;10.60;99.90
16040;DHT22;8124;48.634;8.120;2023-12-14T09:08:15;10.40;99.90
16040;DHT22;8124;48.634;8.120;2023-12-14T09:13:20;10.50;99.90
16040;DHT22;8124;48.634;8.120;2023-12-14T09:18:23;10.50;99.90
16040;DHT22;8124;48.634;8.120;2023-12-14T09:23:26;10.50;99.90
16040;DHT22;8124;48.634;8.120;2023-12-14T09:28:30;10.70;99.90
16040;DHT22;8124;48.634;8.120;2023-12-14T09:33:33;10.60;99.90
16040;DHT22;8124;48.634;8.120;2023-12-14T09:38:36;10.60;99.90
16040;DHT22;8124;48.634;8.120;2023-12-14T09:43:41;10.60;99.90
16040;DHT22;8124;48.634;8.120;2023-12-14T09:48:46;10.70;99.90
16040;DHT22;8124;48.634;8.120;2023-12-14T09:53:49;10.90;99.90
16040;DHT22;8124;48.634;8.120;2023-12-14T09:58:56;10.80;99.90
16040;DHT22;8124;48.634;8.120;2023-12-14T10:04:09;10.90;99.90
16040;DHT22;8124;48.634;8.120;2023-12-14T10:09:13;11.00;99.90
16040;DHT22;8124;48.634;8.120;2023-12-14T10:14:23;10.90;99.90
16040;DHT22;8124;48.634;8.120;2023-12-14T10:19:26;11.00;99.90
16040;DHT22;8124;48.634;8.120;2023-12-14T10:24:32;11.10;99.90
16040;DHT22;8124;48.634;8.120;2023-12-14T10:29:38;11.10;99.90
16040;DHT22;8124;48.634;8.120;2023-12-14T10:34:41;11.00;99.90
16040;DHT22;8124;48.634;8.120;2023-12-14T10:39:44;11.10;99.90
16040;DHT22;8124;48.634;8.120;2023-12-14T10:44:52;11.10;99.90
16040;DHT22;8124;48.634;8.120;2023-12-14T10:50:17;11.20;99.90
16040;DHT22;8124;48.634;8.120;2023-12-14T10:55:25;11.30;99.90
16040;DHT22;8124;48.634;8.120;2023-12-14T11:00:30;11.40;99.90
16040;DHT22;8124;48.634;8.120;2023-12-14T11:05:34;11.40;99.90
16040;DHT22;8124;48.634;8.120;2023-12-14T11:10:39;11.40;99.90
16040;DHT22;8124;48.634;8.120;2023-12-14T11:15:49;11.60;99.90
16040;DHT22;8124;48.634;8.120;2023-12-14T11:20:55;11.60;99.90
16040;DHT22;8124;48.634;8.120;2023-12-14T11:26:00;11.30;99.90
16040;DHT22;8124;48.634;8.120;2023-12-14T11:31:09;11.30;99.90
16040;DHT22;8124;48.634;8.120;2023-12-14T11:36:14;11.20;99.90
16040;DHT22;8124;48.634;8.120;2023-12-14T11:41:17;11.30;99.90
16040;DHT22;8124;48.634;8.120;2023-12-14T11:46:22;11.40;99.90
16040;DHT22;8124;48.634;8.120;2023-12-14T11:51:25;11.30;99.90
16040;DHT22;8124;48.634;8.120;2023-12-14T11:56:28;11.30;99.90
16040;DHT22;8124;48.634;8.120;2023-12-14T12:01:34;11.30;99.90
16040;DHT22;8124;48.634;8.120;2023-12-14T12:06:37;11.40;99.90
16040;DHT22;8124;48.634;8.120;2023-12-14T12:11:41;11.40;99.90
16040;DHT22;8124;48.634;8.120;2023-12-14T12:16:46;11.30;99.90
16040;DHT22;8124;48.634;8.120;2023-12-14T12:21:49;11.30;99.90
16040;DHT22;8124;48.634;8.120;2023-12-14T12:26:52;11.20;99.90
16040;DHT22;8124;48.634;8.120;2023-12-14T12:31:56;11.20;99.90
16040;DHT22;8124;48.634;8.120;2023-12-14T12:36:59;11.00;99.90
16040;DHT22;8124;48.634;8.120;2023-12-14T12:42:02;11.10;99.90
16040;DHT22;8124;48.634;8.120;2023-12-14T12:47:07;11.10;99.90
16040;DHT22;8124;48.634;8.120;2023-12-14T12:52:12;11.00;99.90
16040;DHT22;8124;48.634;8.120;2023-12-14T12:57:15;11.00;99.90
16040;DHT22;8124;48.634;8.120;2023-12-14T13:02:20;11.10;99.90
16040;DHT22;8124;48.634;8.120;2023-12-14T13:07:24;11.10;99.90
16040;DHT22;8124;48.634;8.120;2023-12-14T13:12:27;11.10;99.90
16040;DHT22;8124;48.634;8.120;2023-12-14T13:17:31;11.20;99.90
16040;DHT22;8124;48.634;8.120;2023-12-14T13:22:34;11.20;99.90
16040;DHT22;8124;48.634;8.120;2023-12-14T13:27:37;12.90;99.90
16040;DHT22;8124;48.634;8.120;2023-12-14T13:32:42;12.40;99.90
16040;DHT22;8124;48.634;8.120;2023-12-14T13:37:45;12.00;99.90
16040;DHT22;8124;48.634;8.120;2023-12-14T13:42:48;12.00;99.90
16040;DHT22;8124;48.634;8.120;2023-12-14T13:48:08;11.90;99.90
16040;DHT22;8124;48.634;8.120;2023-12-14T13:53:11;11.60;99.90
16040;DHT22;8124;48.634;8.120;2023-12-14T13:58:17;11.60;99.90
16040;DHT22;8124;48.634;8.120;2023-12-14T14:03:21;11.70;99.90
16040;DHT22;8124;48.634;8.120;2023-12-14T14:08:24;11.70;99.90
16040;DHT22;8124;48.634;8.120;2023-12-14T14:13:28;11.70;99.90
16040;DHT22;8124;48.634;8.120;2023-12-14T14:18:32;11.70;99.90
16040;DHT22;8124;48.634;8.120;2023-12-14T14:23:35;11.70;99.90
16040;DHT22;8124;48.634;8.120;2023-12-14T14:28:38;11.80;99.90
16040;DHT22;8124;48.634;8.120;2023-12-14T14:33:43;11.70;99.90
16040;DHT22;8124;48.634;8.120;2023-12-14T14:38:46;11.70;99.90
16040;DHT22;8124;48.634;8.120;2023-12-14T14:43:49;11.70;99.90
16040;DHT22;8124;48.634;8.120;2023-12-14T14:48:53;11.70;99.90
16040;DHT22;8124;48.634;8.120;2023-12-14T14:53:57;11.60;99.90
16040;DHT22;8124;48.634;8.120;2023-12-14T14:59:00;11.60;99.90
16040;DHT22;8124;48.634;8.120;2023-12-14T15:04:04;11.60;99.90
16040;DHT22;8124;48.634;8.120;2023-12-14T15:09:07;11.60;99.90
16040;DHT22;8124;48.634;8.120;2023-12-14T15:14:11;11.50;99.90
16040;DHT22;8124;48.634;8.120;2023-12-14T15:19:15;11.50;99.90
16040;DHT22;8124;48.634;8.120;2023-12-14T15:24:18;11.50;99.90
16040;DHT22;8124;48.634;8.120;2023-12-14T15:29:21;11.40;99.90
16040;DHT22;8124;48.634;8.120;2023-12-14T15:34:26;11.50;99.90
16040;DHT22;8124;48.634;8.120;2023-12-14T15:39:29;11.40;99.90
16040;DHT22;8124;48.634;8.120;2023-12-14T15:44:32;11.40;99.90
16040;DHT22;8124;48.634;8.120;2023-12-14T15:49:37;11.40;99.90
16040;DHT22;8124;48.634;8.120;2023-12-14T15:54:40;11.30;99.90
16040;DHT22;8124;48.634;8.120;2023-12-14T15:59:43;11.30;99.90
16040;DHT22;8124;48.634;8.120;2023-12-14T16:04:47;11.50;99.90
16040;DHT22;8124;48.634;8.120;2023-12-14T16:09:50;11.40;99.90
16040;DHT22;8124;48.634;8.120;2023-12-14T16:14:53;11.30;99.90
16040;DHT22;8124;48.634;8.120;2023-12-14T16:19:59;11.20;99.90
16040;DHT22;8124;48.634;8.120;2023-12-14T16:25:03;11.30;99.90
16040;DHT22;8124;48.634;8.120;2023-12-14T16:30:07;11.20;99.90
16040;DHT22;8124;48.634;8.120;2023-12-14T16:35:13;11.10;99.90
16040;DHT22;8124;48.634;8.120;2023-12-14T16:40:17;11.20;99.90
16040;DHT22;8124;48.634;8.120;2023-12-14T16:45:21;11.20;99.90
16040;DHT22;8124;48.634;8.120;2023-12-14T16:50:26;11.20;99.90
16040;DHT22;8124;48.634;8.120;2023-12-14T16:55:29;11.20;99.90
16040;DHT22;8124;48.634;8.120;2023-12-14T17:00:32;11.30;99.90
16040;DHT22;8124;48.634;8.120;2023-12-14T17:05:37;11.40;99.90
16040;DHT22;8124;48.634;8.120;2023-12-14T17:10:40;11.30;99.90
16040;DHT22;8124;48.634;8.120;2023-12-14T17:15:43;11.20;99.90
16040;DHT22;8124;48.634;8.120;2023-12-14T17:20:48;11.20;99.90
16040;DHT22;8124;48.634;8.120;2023-12-14T17:25:51;11.20;99.90
16040;DHT22;8124;48.634;8.120;2023-12-14T17:30:54;11.00;99.90
16040;DHT22;8124;48.634;8.120;2023-12-14T17:35:58;11.00;99.90
16040;DHT22;8124;48.634;8.120;2023-12-14T17:41:01;10.70;99.90
16040;DHT22;8124;48.634;8.120;2023-12-14T17:46:07;10.40;99.90
16040;DHT22;8124;48.634;8.120;2023-12-14T17:51:12;10.30;99.90
16040;DHT22;8124;48.634;8.120;2023-12-14T17:56:15;10.10;99.90
16040;DHT22;8124;48.634;8.120;2023-12-14T18:01:19;10.10;99.90
16040;DHT22;8124;48.634;8.120;2023-12-14T18:06:23;10.20;99.90
16040;DHT22;8124;48.634;8.120;2023-12-14T18:11:26;10.20;99.90
16040;DHT22;8124;48.634;8.120;2023-12-14T18:16:29;10.10;99.90
16040;DHT22;8124;48.634;8.120;2023-12-14T18:21:34;10.00;99.90
16040;DHT22;8124;48.634;8.120;2023-12-14T18:26:37;10.00;99.90
16040;DHT22;8124;48.634;8.120;2023-12-14T18:31:40;9.90;99.90
16040;DHT22;8124;48.634;8.120;2023-12-14T18:36:45;10.10;99.90
16040;DHT22;8124;48.634;8.120;2023-12-14T18:41:48;10.10;99.90
16040;DHT22;8124;48.634;8.120;2023-12-14T18:46:52;10.20;99.90
16040;DHT22;8124;48.634;8.120;2023-12-14T18:51:56;10.00;99.90
16040;DHT22;8124;48.634;8.120;2023-12-14T18:57:01;10.00;99.90
16040;DHT22;8124;48.634;8.120;2023-12-14T19:02:07;10.10;99.90
16040;DHT22;8124;48.634;8.120;2023-12-14T19:07:18;9.90;99.90
16040;DHT22;8124;48.634;8.120;2023-12-14T19:12:24;9.80;99.90
16040;DHT22;8124;48.634;8.120;2023-12-14T19:17:28;9.80;99.90
16040;DHT22;8124;48.634;8.120;2023-12-14T19:22:45;9.70;99.90
16040;DHT22;8124;48.634;8.120;2023-12-14T19:27:49;9.50;99.90
16040;DHT22;8124;48.634;8.120;2023-12-14T19:33:02;9.60;99.90
16040;DHT22;8124;48.634;8.120;2023-12-14T19:38:17;9.40;99.90
16040;DHT22;8124;48.634;8.120;2023-12-14T19:43:28;9.40;99.90
16040;DHT22;8124;48.634;8.120;2023-12-14T19:48:50;9.40;99.90
16040;DHT22;8124;48.634;8.120;2023-12-14T19:54:09;9.40;99.90
16040;DHT22;8124;48.634;8.120;2023-12-14T19:59:30;9.50;99.90
16040;DHT22;8124;48.634;8.120;2023-12-14T20:04:55;9.50;99.90
16040;DHT22;8124;48.634;8.120;2023-12-14T20:10:28;9.60;99.90
16040;DHT22;8124;48.634;8.120;2023-12-14T20:15:40;9.70;99.90
16040;DHT22;8124;48.634;8.120;2023-12-14T20:20:55;9.80;99.90
16040;DHT22;8124;48.634;8.120;2023-12-14T20:26:06;9.70;99.90
16040;DHT22;8124;48.634;8.120;2023-12-14T20:31:11;9.90;99.90
16040;DHT22;8124;48.634;8.120;2023-12-14T20:36:16;10.00;99.90
16040;DHT22;8124;48.634;8.120;2023-12-14T20:41:21;9.90;99.90
16040;DHT22;8124;48.634;8.120;2023-12-14T20:46:24;9.90;99.90
16040;DHT22;8124;48.634;8.120;2023-12-14T20:51:28;9.70;99.90
16040;DHT22;8124;48.634;8.120;2023-12-14T20:56:36;9.80;99.90
16040;DHT22;8124;48.634;8.120;2023-12-14T21:01:39;9.80;99.90
16040;DHT22;8124;48.634;8.120;2023-12-14T21:06:42;9.70;99.90
16040;DHT22;8124;48.634;8.120;2023-12-14T21:11:46;9.60;99.90
16040;DHT22;8124;48.634;8.120;2023-12-14T21:16:50;9.70;99.90
16040;DHT22;8124;48.634;8.120;2023-12-14T21:21:53;10.70;99.90
16040;DHT22;8124;48.634;8.120;2023-12-14T21:27:00;10.20;99.90
16040;DHT22;8124;48.634;8.120;2023-12-14T21:32:20;10.00;99.90
16040;DHT22;8124;48.634;8.120;2023-12-14T21:37:24;9.90;99.90
16040;DHT22;8124;48.634;8.120;2023-12-14T21:42:29;9.80;99.90
16040;DHT22;8124;48.634;8.120;2023-12-14T21:47:33;9.60;99.90
16040;DHT22;8124;48.634;8.120;2023-12-14T21:52:37;9.40;99.90
16040;DHT22;8124;48.634;8.120;2023-12-14T21:57:41;9.40;99.90
16040;DHT22;8124;48.634;8.120;2023-12-14T22:02:44;9.20;99.90
16040;DHT22;8124;48.634;8.120;2023-12-14T22:07:48;9.30;99.90
16040;DHT22;8124;48.634;8.120;2023-12-14T22:12:52;9.30;99.90
16040;DHT22;8124;48.634;8.120;2023-12-14T22:17:59;9.30;99.90
16040;DHT22;8124;48.634;8.120;2023-12-14T22:23:02;9.10;99.90
16040;DHT22;8124;48.634;8.120;2023-12-14T22:28:06;9.10;99.90
16040;DHT22;8124;48.634;8.120;2023-12-14T22:33:09;9.20;99.90
16040;DHT22;8124;48.634;8.120;2023-12-14T22:38:13;9.30;99.90
16040;DHT22;8124;48.634;8.120;2023-12-14T22:43:17;9.30;99.90
16040;DHT22;8124;48.634;8.120;2023-12-14T22:48:20;9.30;99.90
16040;DHT22;8124;48.634;8.120;2023-12-14T22:53:23;9.20;99.90
16040;DHT22;8124;48.634;8.120;2023-12-14T22:58:31;9.40;99.90
16040;DHT22;8124;48.634;8.120;2023-12-14T23:03:34;9.30;99.90
16040;DHT22;8124;48.634;8.120;2023-12-14T23:08:37;9.20;99.90
16040;DHT22;8124;48.634;8.120;2023-12-14T23:13:41;9.40;99.90
16040;DHT22;8124;48.634;8.120;2023-12-14T23:18:44;9.20;99.90
16040;DHT22;8124;48.634;8.120;2023-12-14T23:23:48;9.40;99.90
16040;DHT22;8124;48.634;8.120;2023-12-14T23:28:53;9.40;99.90
16040;DHT22;8124;48.634;8.120;2023-12-14T23:33:56;9.20;99.90
16040;DHT22;8124;48.634;8.120;2023-12-14T23:38:59;9.20;99.90
16040;DHT22;8124;48.634;8.120;2023-12-14T23:44:04;9.10;99.90
16040;DHT22;8124;48.634;8.120;2023-12-14T23:49:07;9.20;99.90
16040;DHT22;8124;48.634;8.120;2023-12-14T23:54:10;9.10;99.90
16040;DHT22;8124;48.634;8.120;2023-12-14T23:59:15;9.20;99.90
